New Carrollton, Maryland
Current Conditions -  °F | °C
As of 3:30 PM on Thursday 23 Oct 2014 (Local Time) from KCGS Reporting Station
Overcast Overcast  
Wind Chill: 63°   Ceiling: 4400
Heat Index: 63°   Visibility: 10mi
Dew Point: 45°   Wind: 10mph
Humidity: 52%   Direction: 320°NW
Pressure: 29.85"   Gusts: 26mph
Location:  38.9535°N, 76.8858°W
Report Text: KCGS 231930Z AUTO 32009G23KT 10SM OVC044 17/07 A2985 RMK AO1
Loading
Personal Weather Stations






























Interactive Weather Map
Tropical Storm Tracking
New forecast layout! Learn more

10-Day Weather Forecast

Advertisements
Track Severe Weather on mobile